createdAt,value
2022-10-12T00:01:42.531Z,5.40
2022-10-12T00:04:09.977Z,4.78
2022-10-12T00:06:37.181Z,6.60
2022-10-12T00:09:04.734Z,5.57
2022-10-12T00:11:31.997Z,6.55
2022-10-12T00:14:00.186Z,5.47
2022-10-12T00:16:31.369Z,5.47
2022-10-12T00:18:59.060Z,6.10
2022-10-12T00:21:28.621Z,6.13
2022-10-12T00:24:00.479Z,5.72
2022-10-12T00:26:29.161Z,5.30
2022-10-12T00:29:01.804Z,6.75
2022-10-12T00:31:30.455Z,5.70
2022-10-12T00:34:01.409Z,5.35
2022-10-12T00:36:32.432Z,6.28
2022-10-12T00:39:00.685Z,6.57
2022-10-12T00:41:32.474Z,6.20
2022-10-12T00:44:00.126Z,6.47
2022-10-12T00:46:33.538Z,6.05
2022-10-12T00:49:17.708Z,8.77
2022-10-12T00:51:50.266Z,6.78
2022-10-12T00:54:22.004Z,6.00
2022-10-12T00:56:53.237Z,5.75
2022-10-12T00:59:26.109Z,5.15
2022-10-12T01:01:54.324Z,5.72
2022-10-12T01:04:22.979Z,5.90
2022-10-12T01:06:51.283Z,5.57
2022-10-12T01:09:19.690Z,5.82
2022-10-12T01:11:47.012Z,5.88
2022-10-12T01:14:14.802Z,6.28
2022-10-12T01:16:52.813Z,6.03
2022-10-12T01:19:58.902Z,6.50
2022-10-12T01:22:28.036Z,7.05
2022-10-12T01:25:34.687Z,6.13
2022-10-12T01:28:12.676Z,6.05
2022-10-12T01:30:45.221Z,6.03
2022-10-12T01:33:30.590Z,5.75
2022-10-12T01:36:27.447Z,5.43
2022-10-12T01:39:40.725Z,5.90
2022-10-12T01:42:15.639Z,5.32
2022-10-12T01:44:43.103Z,4.70
2022-10-12T01:47:10.488Z,5.13
2022-10-12T01:49:38.310Z,4.43
2022-10-12T01:52:24.434Z,4.88
2022-10-12T01:55:22.767Z,5.53
2022-10-12T02:00:25.966Z,4.32
2022-10-12T02:03:01.786Z,6.15
2022-10-12T02:06:04.366Z,5.68
2022-10-12T02:08:38.004Z,4.22
2022-10-12T02:11:10.201Z,4.30
2022-10-12T02:13:55.935Z,4.10
2022-10-12T02:16:28.825Z,4.35
2022-10-12T02:18:57.558Z,4.57
2022-10-12T02:21:30.789Z,4.55
2022-10-12T02:24:01.496Z,4.80
2022-10-12T02:26:31.275Z,5.80
2022-10-12T02:29:02.721Z,5.93
2022-10-12T02:31:51.474Z,4.07
2022-10-12T02:34:24.259Z,4.40
2022-10-12T02:37:19.363Z,4.50
2022-10-12T02:39:55.388Z,4.50
2022-10-12T02:42:46.580Z,4.32
2022-10-12T02:45:24.023Z,4.65
2022-10-12T02:47:54.434Z,4.35
2022-10-12T02:50:23.857Z,4.45
2022-10-12T02:52:52.852Z,4.10
2022-10-12T02:55:20.491Z,4.60
2022-10-12T02:57:47.817Z,4.05
2022-10-12T03:00:15.769Z,4.30
2022-10-12T03:02:42.983Z,3.65
2022-10-12T03:05:10.242Z,4.30
2022-10-12T03:07:37.864Z,4.25
2022-10-12T03:10:05.595Z,5.72
2022-10-12T03:12:33.596Z,4.60
2022-10-12T03:15:00.804Z,5.05
2022-10-12T03:17:28.057Z,5.13
2022-10-12T03:19:55.377Z,5.13
2022-10-12T03:22:22.709Z,4.32
2022-10-12T03:24:49.921Z,5.00
2022-10-12T03:27:17.255Z,4.45
2022-10-12T03:29:44.510Z,5.72
2022-10-12T03:32:11.762Z,4.88
2022-10-12T03:34:39.085Z,6.72
2022-10-12T03:37:06.641Z,5.40
2022-10-12T03:39:33.855Z,4.75
2022-10-12T03:42:01.102Z,5.35
2022-10-12T03:44:28.307Z,5.82
2022-10-12T03:46:55.709Z,5.63
2022-10-12T03:49:23.134Z,4.32
2022-10-12T03:51:50.431Z,5.65
2022-10-12T03:54:17.632Z,5.78
2022-10-12T03:56:44.845Z,4.57
2022-10-12T03:59:12.090Z,5.13
2022-10-12T04:01:39.458Z,5.00
2022-10-12T04:04:06.780Z,5.40
2022-10-12T04:06:34.002Z,4.57
2022-10-12T04:09:01.352Z,4.50
2022-10-12T04:11:28.609Z,5.72
2022-10-12T04:13:55.893Z,5.32
2022-10-12T04:16:25.020Z,4.07
2022-10-12T04:18:54.712Z,4.70
2022-10-12T04:21:24.170Z,4.90
2022-10-12T04:23:51.703Z,4.90
2022-10-12T04:26:19.112Z,4.15
2022-10-12T04:28:46.407Z,5.75
2022-10-12T04:31:13.696Z,4.30
2022-10-12T04:33:40.969Z,4.57
2022-10-12T04:36:08.395Z,4.10
2022-10-12T04:38:35.797Z,5.18
2022-10-12T04:41:03.030Z,4.82
2022-10-12T04:43:30.342Z,4.75
2022-10-12T04:45:59.235Z,4.65
2022-10-12T04:48:27.266Z,5.40
2022-10-12T04:50:54.539Z,3.83
2022-10-12T04:53:21.925Z,4.60
2022-10-12T04:55:49.237Z,4.47
2022-10-12T04:58:16.522Z,4.50
2022-10-12T05:00:44.188Z,4.68
2022-10-12T05:03:11.750Z,5.57
2022-10-12T05:05:38.972Z,4.90
2022-10-12T05:08:06.341Z,4.97
2022-10-12T05:10:34.092Z,4.68
2022-10-12T05:13:01.532Z,5.15
2022-10-12T05:15:28.797Z,4.85
2022-10-12T05:17:56.408Z,5.65
2022-10-12T05:20:23.888Z,4.95
2022-10-12T05:22:51.293Z,5.03
2022-10-12T05:25:19.766Z,4.60
2022-10-12T05:27:47.183Z,4.68
2022-10-12T05:30:14.568Z,4.18
2022-10-12T05:32:43.751Z,4.68
2022-10-12T05:35:11.398Z,4.75
2022-10-12T05:37:39.128Z,4.10
2022-10-12T05:40:07.373Z,4.72
2022-10-12T05:42:35.971Z,3.78
2022-10-12T05:45:04.461Z,4.75
2022-10-12T05:47:31.968Z,4.85
2022-10-12T05:49:59.219Z,4.30
2022-10-12T05:52:26.683Z,4.43
2022-10-12T05:54:54.017Z,6.55
2022-10-12T05:57:21.549Z,4.35
2022-10-12T05:59:49.181Z,4.50
2022-10-12T06:02:18.298Z,4.22
2022-10-12T06:04:45.734Z,4.80
2022-10-12T06:07:13.035Z,4.90
2022-10-12T06:09:40.316Z,4.63
2022-10-12T06:12:07.956Z,4.82
2022-10-12T06:14:35.262Z,4.00
2022-10-12T06:17:02.584Z,4.55
2022-10-12T06:19:29.881Z,4.53
2022-10-12T06:21:57.960Z,6.32
2022-10-12T06:24:25.275Z,5.90
2022-10-12T06:26:52.637Z,5.22
2022-10-12T06:29:23.416Z,4.43
2022-10-12T06:31:51.937Z,5.15
2022-10-12T06:34:19.670Z,5.35
2022-10-12T06:36:47.136Z,4.65
2022-10-12T06:39:14.704Z,6.10
2022-10-12T06:41:42.155Z,6.53
2022-10-12T06:44:09.734Z,6.10
2022-10-12T06:46:36.999Z,5.60
2022-10-12T06:49:04.368Z,4.80
2022-10-12T06:51:31.789Z,6.15
2022-10-12T06:53:59.055Z,5.72
2022-10-12T06:56:26.357Z,5.65
2022-10-12T06:58:57.685Z,5.13
2022-10-12T07:01:25.074Z,5.75
2022-10-12T07:03:55.013Z,6.07
2022-10-12T07:06:24.456Z,5.43
2022-10-12T07:08:54.573Z,5.10
2022-10-12T07:11:22.191Z,5.50
2022-10-12T07:13:49.557Z,5.90
2022-10-12T07:16:16.843Z,5.18
2022-10-12T07:18:44.206Z,5.25
2022-10-12T07:21:11.502Z,5.20
2022-10-12T07:23:42.505Z,5.55
2022-10-12T07:26:13.253Z,5.60
2022-10-12T07:28:40.518Z,5.50
2022-10-12T07:31:09.755Z,5.05
2022-10-12T07:33:40.548Z,5.93
2022-10-12T07:36:21.264Z,5.82
2022-10-12T07:38:49.630Z,6.30
2022-10-12T07:41:17.904Z,5.22
2022-10-12T07:43:45.403Z,4.65
2022-10-12T07:46:13.009Z,5.28
2022-10-12T07:48:45.634Z,5.88
2022-10-12T07:51:16.289Z,5.78
2022-10-12T07:53:43.628Z,5.53
2022-10-12T07:56:15.238Z,5.63
2022-10-12T07:58:54.058Z,7.80
2022-10-12T08:01:23.729Z,6.22
2022-10-12T08:03:52.383Z,5.30
2022-10-12T08:06:23.448Z,5.43
2022-10-12T08:08:51.458Z,5.05
2022-10-12T08:11:20.149Z,4.90
2022-10-12T08:13:48.131Z,6.72
2022-10-12T08:16:19.100Z,5.90
2022-10-12T08:18:46.673Z,4.35
2022-10-12T08:21:16.647Z,4.38
2022-10-12T08:23:45.183Z,4.13
2022-10-12T08:26:14.522Z,4.18
2022-10-12T08:28:42.088Z,3.58
2022-10-12T08:31:14.984Z,4.20
2022-10-12T08:33:42.400Z,3.88
2022-10-12T08:36:11.796Z,3.63
2022-10-12T08:38:39.386Z,3.65
2022-10-12T08:41:25.408Z,3.00
2022-10-12T08:44:04.624Z,3.28
2022-10-12T08:46:32.365Z,3.38
2022-10-12T08:49:18.881Z,3.25
2022-10-12T08:51:51.234Z,3.90
2022-10-12T08:54:22.454Z,3.40
2022-10-12T08:56:54.246Z,3.58
2022-10-12T08:59:21.776Z,3.85
2022-10-12T09:01:57.837Z,4.28
2022-10-12T09:04:33.742Z,3.13
2022-10-12T09:07:22.133Z,2.80
2022-10-12T09:10:08.102Z,2.30
2022-10-12T09:13:03.122Z,3.58
2022-10-12T09:15:37.970Z,3.47
2022-10-12T09:18:20.328Z,2.90
2022-10-12T09:20:50.085Z,3.03
2022-10-12T09:23:23.204Z,3.05
2022-10-12T09:25:51.072Z,3.25
2022-10-12T09:28:39.172Z,2.58
2022-10-12T09:31:42.391Z,3.03
2022-10-12T09:34:11.422Z,3.03
2022-10-12T09:36:41.929Z,2.90
2022-10-12T09:39:34.501Z,2.67
2022-10-12T09:42:02.583Z,2.45
2022-10-12T09:45:08.883Z,3.28
2022-10-12T09:47:36.157Z,10.15
2022-10-12T09:50:07.727Z,2.28
2022-10-12T09:52:44.037Z,3.03
2022-10-12T09:55:25.327Z,2.85
2022-10-12T09:58:02.776Z,3.05
2022-10-12T10:00:34.854Z,3.20
2022-10-12T10:03:05.424Z,2.50
2022-10-12T10:05:38.094Z,3.70
2022-10-12T10:08:14.539Z,4.97
2022-10-12T10:10:53.146Z,3.40
2022-10-12T10:13:23.049Z,3.70
2022-10-12T10:15:52.439Z,3.33
2022-10-12T10:18:36.071Z,2.58
2022-10-12T10:21:07.633Z,2.80
2022-10-12T10:23:49.788Z,3.08
2022-10-12T10:26:19.764Z,2.63
2022-10-12T10:28:50.140Z,2.38
2022-10-12T10:31:22.357Z,2.90
2022-10-12T10:34:13.736Z,2.70
2022-10-12T10:36:49.444Z,2.63
2022-10-12T10:39:30.961Z,1.90
2022-10-12T10:42:10.677Z,2.33
2022-10-12T10:44:38.295Z,2.40
2022-10-12T10:47:11.265Z,2.42
2022-10-12T10:49:44.414Z,2.13
2022-10-12T10:52:27.886Z,2.15
2022-10-12T10:55:10.467Z,3.10
2022-10-12T10:57:43.789Z,3.10
2022-10-12T11:00:51.495Z,2.42
2022-10-12T11:03:33.906Z,2.50
2022-10-12T11:06:23.547Z,2.35
2022-10-12T11:08:58.814Z,2.72
2022-10-12T11:11:28.536Z,2.78
2022-10-12T11:14:04.090Z,2.53
2022-10-12T11:16:39.895Z,3.53
2022-10-12T11:19:22.450Z,2.22
2022-10-12T11:21:56.462Z,1.92
2022-10-12T11:24:36.729Z,2.53
2022-10-12T11:27:26.794Z,2.88
2022-10-12T11:30:09.031Z,2.08
2022-10-12T11:32:59.933Z,2.33
2022-10-12T11:35:34.628Z,2.75
2022-10-12T11:38:09.540Z,4.43
2022-10-12T11:43:39.727Z,2.83
2022-10-12T11:46:10.416Z,2.80
2022-10-12T11:48:52.106Z,2.33
2022-10-12T11:51:19.360Z,2.45
2022-10-12T11:54:11.692Z,3.03
2022-10-12T11:56:50.651Z,2.75
2022-10-12T11:59:27.445Z,2.97
2022-10-12T12:02:16.039Z,2.90
2022-10-12T12:04:47.071Z,2.90
2022-10-12T12:07:23.096Z,3.15
2022-10-12T12:09:51.358Z,3.30
2022-10-12T12:12:29.282Z,2.50
2022-10-12T12:15:02.370Z,2.72
2022-10-12T12:17:32.504Z,3.40
2022-10-12T12:20:23.956Z,2.95
2022-10-12T12:22:54.856Z,2.30
2022-10-12T12:25:31.065Z,2.50
2022-10-12T12:28:22.994Z,3.10
2022-10-12T12:31:24.348Z,2.90
2022-10-12T12:34:03.561Z,2.72
2022-10-12T12:36:38.131Z,4.38
2022-10-12T12:39:20.250Z,3.15
2022-10-12T12:41:57.700Z,2.50
2022-10-12T12:44:44.481Z,2.30
2022-10-12T12:47:43.385Z,2.78
2022-10-12T12:50:09.189Z,3.05
2022-10-12T12:52:39.877Z,3.10
2022-10-12T12:55:16.366Z,2.85
2022-10-12T12:58:04.805Z,2.20
2022-10-12T13:01:16.883Z,2.95
2022-10-12T13:04:14.992Z,2.20
2022-10-12T13:06:54.222Z,2.85
2022-10-12T13:10:09.509Z,2.88
2022-10-12T13:12:57.585Z,2.03
2022-10-12T13:16:09.543Z,2.25
2022-10-12T13:18:59.475Z,2.38
2022-10-12T13:21:29.968Z,2.30
2022-10-12T13:24:11.549Z,2.30
2022-10-12T13:26:40.913Z,2.20
2022-10-12T13:29:22.005Z,2.83
2022-10-12T13:31:53.915Z,2.47
2022-10-12T13:34:29.719Z,1.83
2022-10-12T13:37:10.609Z,2.97
2022-10-12T13:39:46.851Z,2.60
2022-10-12T13:42:18.239Z,2.35
2022-10-12T13:44:47.967Z,1.70
2022-10-12T13:47:30.486Z,2.10
2022-10-12T13:49:59.208Z,1.73
2022-10-12T13:52:32.545Z,1.95
2022-10-12T13:55:00.959Z,2.20
2022-10-12T13:57:50.293Z,2.90
2022-10-12T14:00:21.041Z,1.85
2022-10-12T14:02:57.239Z,1.70
2022-10-12T14:05:27.106Z,2.00
2022-10-12T14:07:58.872Z,2.63
2022-10-12T14:10:37.850Z,2.17
2022-10-12T14:13:06.611Z,1.92
2022-10-12T14:15:40.244Z,1.92
2022-10-12T14:18:37.614Z,1.65
2022-10-12T14:21:26.642Z,2.90
2022-10-12T14:24:07.515Z,2.95
2022-10-12T14:26:41.820Z,2.10
2022-10-12T14:29:31.408Z,1.48
2022-10-12T14:32:04.691Z,1.88
2022-10-12T14:34:39.044Z,1.95
2022-10-12T14:37:28.188Z,1.95
2022-10-12T14:40:00.321Z,2.30
2022-10-12T14:42:35.920Z,2.00
2022-10-12T14:45:22.966Z,2.20
2022-10-12T14:47:50.325Z,2.20
2022-10-12T14:50:20.315Z,1.77
2022-10-12T14:52:49.843Z,2.45
2022-10-12T14:55:18.692Z,2.55
2022-10-12T14:57:46.820Z,2.20
2022-10-12T15:00:16.427Z,3.10
2022-10-12T15:02:44.850Z,2.90
2022-10-12T15:05:14.291Z,1.77
2022-10-12T15:07:41.869Z,2.95
2022-10-12T15:10:09.727Z,2.50
2022-10-12T15:12:37.201Z,2.15
2022-10-12T15:15:35.680Z,2.97
2022-10-12T15:18:03.511Z,2.65
2022-10-12T15:20:31.959Z,2.50
2022-10-12T15:22:59.823Z,3.10
2022-10-12T15:25:33.265Z,4.45
2022-10-12T15:28:01.197Z,3.97
2022-10-12T15:30:28.463Z,4.65
2022-10-12T15:32:55.941Z,3.20
2022-10-12T15:35:26.264Z,3.15
2022-10-12T15:37:56.330Z,3.08
2022-10-12T15:40:24.720Z,2.67
2022-10-12T15:42:51.989Z,2.67
2022-10-12T15:45:29.231Z,2.30
2022-10-12T15:50:29.109Z,2.60
2022-10-12T15:52:56.930Z,2.13
2022-10-12T15:55:27.205Z,3.08
2022-10-12T15:57:58.119Z,2.45
2022-10-12T16:00:27.886Z,2.63
2022-10-12T16:02:56.649Z,2.30
2022-10-12T16:05:50.211Z,3.20
2022-10-12T16:08:17.524Z,2.85
2022-10-12T16:10:45.567Z,2.70
2022-10-12T16:13:13.977Z,3.47
2022-10-12T16:15:42.398Z,2.90
2022-10-12T16:18:10.626Z,3.17
2022-10-12T16:20:41.396Z,2.83
2022-10-12T16:23:23.661Z,3.85
2022-10-12T16:25:51.093Z,3.50
2022-10-12T16:28:18.828Z,4.45
2022-10-12T16:30:46.240Z,2.60
2022-10-12T16:33:15.155Z,3.47
2022-10-12T16:35:42.571Z,3.33
2022-10-12T16:38:10.326Z,5.53
2022-10-12T16:40:42.260Z,3.05
2022-10-12T16:43:10.006Z,3.72
2022-10-12T16:45:37.347Z,3.63
2022-10-12T16:48:04.845Z,3.15
2022-10-12T16:50:32.507Z,3.58
2022-10-12T16:53:00.454Z,2.90
2022-10-12T16:55:27.814Z,3.65
2022-10-12T16:57:55.092Z,2.92
2022-10-12T17:00:22.537Z,3.65
2022-10-12T17:02:51.200Z,3.17
2022-10-12T17:05:20.366Z,4.97
2022-10-12T17:07:47.658Z,3.15
2022-10-12T17:10:15.225Z,3.17
2022-10-12T17:12:42.723Z,3.83
2022-10-12T17:15:10.388Z,4.47
2022-10-12T17:17:37.875Z,2.38
2022-10-12T17:20:09.495Z,2.70
2022-10-12T17:22:36.869Z,2.70
2022-10-12T17:25:04.465Z,2.95
2022-10-12T17:27:32.409Z,3.13
2022-10-12T17:29:59.971Z,3.10
2022-10-12T17:32:27.342Z,2.65
2022-10-12T17:34:54.689Z,2.25
2022-10-12T17:37:22.070Z,2.78
2022-10-12T17:39:50.369Z,2.63
2022-10-12T17:42:18.590Z,3.15
2022-10-12T17:44:46.270Z,3.50
2022-10-12T17:47:14.354Z,3.20
2022-10-12T17:49:41.937Z,3.75
2022-10-12T17:52:09.703Z,3.20
2022-10-12T17:54:37.169Z,3.40
2022-10-12T17:57:04.773Z,3.33
2022-10-12T17:59:32.074Z,3.70
2022-10-12T18:01:59.382Z,3.50
2022-10-12T18:04:26.783Z,2.72
2022-10-12T18:06:54.220Z,3.25
2022-10-12T18:09:21.470Z,3.03
2022-10-12T18:11:48.762Z,3.08
2022-10-12T18:14:16.168Z,2.90
2022-10-12T18:16:43.518Z,2.88
2022-10-12T18:19:11.669Z,3.35
2022-10-12T18:21:39.475Z,2.28
2022-10-12T18:24:16.063Z,3.00
2022-10-12T18:26:46.258Z,3.15
2022-10-12T18:29:18.149Z,2.42
2022-10-12T18:31:45.474Z,2.65
2022-10-12T18:34:12.847Z,2.97
2022-10-12T18:36:41.350Z,2.95
2022-10-12T18:39:08.812Z,2.65
2022-10-12T18:41:36.156Z,5.13
2022-10-12T18:44:03.687Z,5.38
2022-10-12T18:46:33.201Z,4.57
2022-10-12T18:49:04.802Z,3.60
2022-10-12T18:51:37.750Z,2.92
2022-10-12T18:54:06.386Z,3.72
2022-10-12T18:56:36.738Z,3.78
2022-10-12T18:59:04.522Z,3.70
2022-10-12T19:01:33.355Z,3.72
2022-10-12T19:04:02.033Z,3.50
2022-10-12T19:06:34.713Z,3.42
2022-10-12T19:09:02.877Z,3.15
2022-10-12T19:11:31.266Z,4.13
2022-10-12T19:14:04.521Z,3.42
2022-10-12T19:16:32.729Z,3.80
2022-10-12T19:19:02.905Z,3.92
2022-10-12T19:21:31.917Z,4.72
2022-10-12T19:24:03.805Z,4.60
2022-10-12T19:26:32.588Z,3.92
2022-10-12T19:29:00.462Z,4.05
2022-10-12T19:31:30.988Z,4.18
2022-10-12T19:34:01.169Z,3.83
2022-10-12T19:36:29.498Z,3.72
2022-10-12T19:39:02.162Z,3.60
2022-10-12T19:41:30.264Z,3.47
2022-10-12T19:43:59.936Z,3.00
2022-10-12T19:46:27.728Z,3.40
2022-10-12T19:48:56.799Z,2.97
2022-10-12T19:51:25.252Z,4.00
2022-10-12T19:53:57.852Z,4.28
2022-10-12T19:56:26.224Z,3.75
2022-10-12T19:58:55.803Z,3.67
2022-10-12T20:01:35.573Z,3.67
2022-10-12T20:04:09.806Z,2.88
2022-10-12T20:06:37.693Z,3.38
2022-10-12T20:09:06.249Z,3.15
2022-10-12T20:11:33.738Z,3.50
2022-10-12T20:14:01.765Z,3.38
2022-10-12T20:16:34.677Z,3.80
2022-10-12T20:19:03.502Z,4.85
2022-10-12T20:21:31.084Z,5.50
2022-10-12T20:23:58.415Z,4.50
2022-10-12T20:26:26.252Z,4.07
2022-10-12T20:28:54.426Z,3.90
2022-10-12T20:31:27.404Z,3.33
2022-10-12T20:33:55.918Z,2.53
2022-10-12T20:36:27.039Z,3.83
2022-10-12T20:38:54.630Z,4.10
2022-10-12T20:41:23.339Z,3.95
2022-10-12T20:43:55.051Z,3.28
2022-10-12T20:46:22.457Z,3.22
2022-10-12T20:48:50.925Z,2.97
2022-10-12T20:51:30.036Z,4.15
2022-10-12T20:54:00.378Z,3.38
2022-10-12T20:56:32.400Z,5.88
2022-10-12T20:58:59.878Z,3.63
2022-10-12T21:01:28.225Z,2.60
2022-10-12T21:03:56.138Z,2.80
2022-10-12T21:06:23.889Z,4.07
2022-10-12T21:08:56.807Z,4.00
2022-10-12T21:11:24.681Z,3.53
2022-10-12T21:13:52.641Z,3.15
2022-10-12T21:16:20.023Z,3.55
2022-10-12T21:18:47.411Z,6.07
2022-10-12T21:21:17.297Z,3.20
2022-10-12T21:23:53.637Z,3.53
2022-10-12T21:26:22.874Z,3.90
2022-10-12T21:28:50.648Z,2.50
2022-10-12T21:31:18.864Z,3.10
2022-10-12T21:33:46.366Z,3.50
2022-10-12T21:36:16.802Z,3.92
2022-10-12T21:38:44.477Z,3.35
2022-10-12T21:41:13.644Z,3.42
2022-10-12T21:43:43.083Z,3.53
2022-10-12T21:46:16.636Z,2.95
2022-10-12T21:48:44.375Z,3.63
2022-10-12T21:51:11.943Z,2.83
2022-10-12T21:53:40.353Z,3.15
2022-10-12T21:56:15.216Z,2.42
2022-10-12T21:58:43.135Z,2.33
2022-10-12T22:01:17.786Z,3.67
2022-10-12T22:03:45.939Z,2.58
2022-10-12T22:06:16.289Z,2.53
2022-10-12T22:08:43.999Z,3.28
2022-10-12T22:11:13.821Z,3.65
2022-10-12T22:13:41.169Z,3.20
2022-10-12T22:16:12.443Z,3.08
2022-10-12T22:18:40.871Z,3.22
2022-10-12T22:21:11.374Z,2.75
2022-10-12T22:23:39.244Z,2.92
2022-10-12T22:26:11.417Z,2.85
2022-10-12T22:28:43.222Z,3.37
2022-10-12T22:31:12.685Z,2.63
2022-10-12T22:33:40.058Z,3.00
2022-10-12T22:36:09.776Z,2.63
2022-10-12T22:38:37.084Z,2.90
2022-10-12T22:41:07.204Z,2.28
2022-10-12T22:43:43.306Z,2.95
2022-10-12T22:46:10.981Z,2.20
2022-10-12T22:48:38.414Z,2.72
2022-10-12T22:51:06.959Z,2.33
2022-10-12T22:53:35.514Z,2.33
2022-10-12T22:56:06.894Z,2.13
2022-10-12T22:58:35.447Z,2.58
2022-10-12T23:01:08.766Z,2.90
2022-10-12T23:03:36.556Z,2.25
2022-10-12T23:06:11.409Z,2.33
2022-10-12T23:08:38.899Z,2.53
2022-10-12T23:11:13.130Z,2.28
2022-10-12T23:13:41.115Z,2.80
2022-10-12T23:16:12.628Z,3.15
2022-10-12T23:18:40.810Z,2.53
2022-10-12T23:21:11.401Z,2.88
2022-10-12T23:23:39.922Z,2.72
2022-10-12T23:26:13.163Z,3.30
2022-10-12T23:28:40.674Z,3.22
2022-10-12T23:31:18.980Z,3.10
2022-10-12T23:33:46.649Z,3.13
2022-10-12T23:36:17.062Z,3.53
2022-10-12T23:38:44.906Z,3.70
2022-10-12T23:41:13.091Z,3.90
2022-10-12T23:43:40.935Z,4.10
2022-10-12T23:46:08.655Z,3.65
2022-10-12T23:48:35.972Z,3.95
2022-10-12T23:51:05.670Z,3.92
2022-10-12T23:53:33.254Z,4.80
2022-10-12T23:56:00.528Z,4.82
2022-10-12T23:58:27.827Z,4.18
